createdAt,value
2022-08-19T00:02:00.329Z,15.65
2022-08-19T00:04:34.465Z,14.23
2022-08-19T00:07:02.151Z,14.18
2022-08-19T00:09:29.556Z,14.55
2022-08-19T00:11:58.663Z,15.48
2022-08-19T00:14:27.606Z,16.65
2022-08-19T00:16:55.288Z,14.35
2022-08-19T00:19:23.571Z,15.77
2022-08-19T00:21:50.691Z,15.30
2022-08-19T00:24:17.589Z,14.80
2022-08-19T00:26:46.171Z,14.52
2022-08-19T00:29:15.804Z,15.18
2022-08-19T00:31:43.837Z,16.52
2022-08-19T00:34:12.380Z,16.23
2022-08-19T00:36:40.233Z,16.45
2022-08-19T00:39:07.222Z,13.98
2022-08-19T00:41:34.199Z,14.38
2022-08-19T00:44:07.732Z,15.82
2022-08-19T00:46:37.434Z,13.77
2022-08-19T00:49:13.311Z,14.60
2022-08-19T00:51:40.061Z,13.50
2022-08-19T00:54:06.798Z,15.32
2022-08-19T00:56:34.623Z,16.02
2022-08-19T00:59:02.695Z,15.20
2022-08-19T01:01:29.735Z,15.45
2022-08-19T01:03:58.620Z,12.90
2022-08-19T01:06:27.267Z,13.95
2022-08-19T01:08:55.828Z,11.80
2022-08-19T01:11:22.584Z,11.45
2022-08-19T01:13:51.022Z,11.73
2022-08-19T01:16:20.183Z,10.68
2022-08-19T01:18:47.288Z,12.05
2022-08-19T01:21:26.506Z,12.45
2022-08-19T01:23:53.312Z,11.30
2022-08-19T01:26:23.657Z,12.70
2022-08-19T01:28:53.541Z,11.07
2022-08-19T01:31:27.353Z,11.60
2022-08-19T01:33:56.904Z,11.77
2022-08-19T01:36:32.612Z,11.45
2022-08-19T01:39:00.681Z,11.52
2022-08-19T01:41:27.639Z,12.95
2022-08-19T01:44:03.183Z,13.63
2022-08-19T01:46:42.810Z,11.75
2022-08-19T01:49:09.719Z,11.32
2022-08-19T01:51:39.935Z,11.32
2022-08-19T01:54:08.237Z,11.27
2022-08-19T01:56:35.336Z,13.27
2022-08-19T01:59:07.105Z,10.80
2022-08-19T02:01:35.592Z,13.25
2022-08-19T02:04:02.646Z,11.02
2022-08-19T02:06:29.462Z,10.05
2022-08-19T02:08:57.623Z,10.48
2022-08-19T02:11:32.454Z,10.80
2022-08-19T02:14:00.362Z,12.27
2022-08-19T02:16:27.050Z,9.52
2022-08-19T02:18:53.908Z,8.57
2022-08-19T02:21:23.056Z,9.00
2022-08-19T02:58:33.587Z,21.48
2022-08-19T03:01:00.333Z,21.95
2022-08-19T03:03:27.815Z,20.63
2022-08-19T03:06:05.636Z,21.15
2022-08-19T03:08:32.378Z,23.52
2022-08-19T03:10:59.027Z,20.85
2022-08-19T03:13:25.980Z,20.65
2022-08-19T03:15:52.639Z,22.55
2022-08-19T03:18:19.464Z,26.45
2022-08-19T03:20:50.134Z,22.98
2022-08-19T03:23:18.004Z,28.63
2022-08-19T03:25:58.161Z,22.80
2022-08-19T03:28:30.790Z,22.52
2022-08-19T03:31:01.715Z,26.02
2022-08-19T03:33:30.090Z,24.90
2022-08-19T03:36:15.177Z,26.08
2022-08-19T03:38:45.473Z,25.95
2022-08-19T03:41:16.338Z,26.30
2022-08-19T03:43:43.982Z,26.42
2022-08-19T03:46:21.533Z,26.85
2022-08-19T03:48:54.667Z,28.25
2022-08-19T03:51:35.874Z,26.92
2022-08-19T03:54:06.683Z,26.98
2022-08-19T03:56:36.434Z,25.77
2022-08-19T03:59:05.124Z,31.67
2022-08-19T04:01:35.155Z,25.42
2022-08-19T04:04:04.735Z,25.48
2022-08-19T04:06:34.999Z,28.27
2022-08-19T04:09:04.855Z,27.05
2022-08-19T04:11:43.758Z,28.00
2022-08-19T04:14:14.616Z,26.48
2022-08-19T04:16:41.783Z,27.15
2022-08-19T04:19:08.492Z,28.33
2022-08-19T04:21:35.715Z,29.15
2022-08-19T04:24:04.199Z,29.17
2022-08-19T04:26:34.756Z,28.52
2022-08-19T04:29:10.397Z,30.88
2022-08-19T04:31:38.908Z,30.45
2022-08-19T04:34:08.553Z,31.55
2022-08-19T04:36:37.386Z,35.65
2022-08-19T04:39:10.556Z,35.35
2022-08-19T04:41:56.764Z,36.05
2022-08-19T04:44:23.957Z,35.95
2022-08-19T04:46:52.269Z,33.10
2022-08-19T04:49:22.970Z,36.97
2022-08-19T04:51:54.789Z,34.10
2022-08-19T04:54:36.987Z,39.63
2022-08-19T04:57:07.744Z,36.65
2022-08-19T04:59:35.150Z,38.13
2022-08-19T05:02:02.223Z,35.75
2022-08-19T05:04:32.701Z,37.03
2022-08-19T05:07:01.100Z,39.25
2022-08-19T05:09:28.726Z,37.65
2022-08-19T05:12:16.187Z,36.92
2022-08-19T05:14:42.830Z,32.25
2022-08-19T05:17:26.591Z,35.53
2022-08-19T05:20:13.011Z,34.05
2022-08-19T05:22:40.201Z,33.80
2022-08-19T05:25:13.383Z,37.83
2022-08-19T05:27:42.333Z,34.85
2022-08-19T05:30:10.209Z,32.00
2022-08-19T05:32:37.493Z,35.72
2022-08-19T05:35:05.630Z,34.40
2022-08-19T05:37:32.331Z,36.70
2022-08-19T05:39:59.255Z,36.33
2022-08-19T05:42:26.456Z,35.35
2022-08-19T05:44:53.302Z,36.95
2022-08-19T05:47:21.027Z,35.80
2022-08-19T05:49:50.701Z,33.65
2022-08-19T05:52:18.923Z,36.55
2022-08-19T05:54:51.384Z,32.90
2022-08-19T05:57:19.789Z,35.72
2022-08-19T05:59:49.128Z,36.40
2022-08-19T06:02:15.948Z,37.40
2022-08-19T06:04:43.922Z,35.47
2022-08-19T06:07:12.214Z,36.53
2022-08-19T06:09:40.633Z,33.65
2022-08-19T06:12:08.285Z,34.25
2022-08-19T06:14:40.298Z,34.58
2022-08-19T06:17:09.278Z,35.20
2022-08-19T06:19:40.494Z,35.90
2022-08-19T06:22:08.295Z,34.45
2022-08-19T06:24:36.057Z,32.92
2022-08-19T06:27:03.730Z,32.65
2022-08-19T06:29:31.186Z,31.73
2022-08-19T06:32:00.126Z,36.35
2022-08-19T06:34:30.207Z,34.40
2022-08-19T06:37:02.210Z,31.48
2022-08-19T06:39:34.081Z,35.08
2022-08-19T06:42:04.115Z,29.73
2022-08-19T06:44:35.222Z,31.67
2022-08-19T06:47:09.641Z,30.30
2022-08-19T06:49:42.315Z,27.25
2022-08-19T06:52:13.839Z,29.65
2022-08-19T06:54:55.341Z,30.75
2022-08-19T06:57:24.939Z,29.25
2022-08-19T06:59:52.215Z,37.70
2022-08-19T07:02:19.826Z,34.70
2022-08-19T07:04:47.055Z,30.83
2022-08-19T07:07:21.254Z,28.25
2022-08-19T07:09:57.156Z,27.45
2022-08-19T07:12:30.238Z,29.35
2022-08-19T07:14:58.397Z,26.70
2022-08-19T07:17:25.706Z,29.25
2022-08-19T07:19:54.496Z,33.00
2022-08-19T07:22:24.193Z,26.95
2022-08-19T07:24:52.543Z,29.73
2022-08-19T07:27:24.126Z,28.73
2022-08-19T07:32:27.373Z,28.92
2022-08-19T07:34:55.025Z,30.65
2022-08-19T07:37:24.283Z,27.10
2022-08-19T07:39:51.034Z,28.48
2022-08-19T07:42:19.199Z,28.58
2022-08-19T07:44:50.769Z,28.40
2022-08-19T07:47:48.872Z,30.67
2022-08-19T07:50:10.016Z,26.52
2022-08-19T07:52:39.422Z,29.65
2022-08-19T07:55:13.651Z,29.15
2022-08-19T07:57:56.306Z,30.80
2022-08-19T08:00:24.243Z,27.73
2022-08-19T08:02:51.572Z,28.73
2022-08-19T08:05:40.629Z,30.48
2022-08-19T08:08:28.155Z,30.30
2022-08-19T08:10:57.129Z,28.70
2022-08-19T08:13:26.573Z,31.40
2022-08-19T08:15:54.866Z,29.65
2022-08-19T08:18:27.825Z,28.80
2022-08-19T08:20:58.729Z,27.02
2022-08-19T08:23:26.694Z,28.55
2022-08-19T08:25:58.043Z,28.10
2022-08-19T08:28:29.674Z,27.70
2022-08-19T08:30:58.403Z,26.92
2022-08-19T08:33:34.389Z,27.52
2022-08-19T08:36:12.380Z,28.08
2022-08-19T08:38:40.570Z,27.92
2022-08-19T08:41:30.017Z,28.88
2022-08-19T08:43:58.022Z,27.75
2022-08-19T08:46:42.973Z,26.95
2022-08-19T08:49:12.881Z,27.50
2022-08-19T08:51:48.734Z,24.00
2022-08-19T08:54:31.710Z,26.83
2022-08-19T08:57:03.867Z,22.13
2022-08-19T08:59:37.852Z,23.20
2022-08-19T09:02:04.705Z,23.83
2022-08-19T09:04:31.459Z,22.90
2022-08-19T09:06:58.091Z,22.48
2022-08-19T09:09:47.245Z,21.83
2022-08-19T09:12:35.919Z,25.60
2022-08-19T09:15:09.518Z,23.02
2022-08-19T09:17:39.184Z,24.25
2022-08-19T09:20:11.980Z,23.55
2022-08-19T09:22:44.871Z,25.33
2022-08-19T09:25:15.931Z,24.23
2022-08-19T09:27:43.681Z,25.75
2022-08-19T09:30:18.068Z,25.42
2022-08-19T09:32:46.140Z,29.95
2022-08-19T09:35:15.254Z,27.52
2022-08-19T09:37:51.488Z,27.58
2022-08-19T09:40:27.419Z,26.67
2022-08-19T09:43:09.865Z,30.45
2022-08-19T09:45:39.114Z,32.60
2022-08-19T09:48:18.983Z,29.95
2022-08-19T09:50:59.978Z,29.50
2022-08-19T09:53:28.988Z,34.17
2022-08-19T09:56:12.673Z,30.35
2022-08-19T09:58:53.779Z,34.30
2022-08-19T10:01:31.615Z,34.42
2022-08-19T10:04:01.209Z,34.67
2022-08-19T10:06:46.120Z,33.63
2022-08-19T10:09:16.952Z,35.00
2022-08-19T10:12:02.494Z,35.05
2022-08-19T10:14:34.303Z,35.70
2022-08-19T10:17:17.686Z,36.83
2022-08-19T10:19:55.693Z,39.22
2022-08-19T10:22:32.666Z,40.30
2022-08-19T10:25:06.377Z,44.00
2022-08-19T10:27:34.254Z,44.90
2022-08-19T10:30:04.010Z,41.47
2022-08-19T10:32:46.358Z,42.15
2022-08-19T10:35:21.924Z,41.53
2022-08-19T10:37:57.555Z,41.40
2022-08-19T10:40:30.238Z,42.50
2022-08-19T10:43:07.260Z,42.08
2022-08-19T10:45:35.183Z,44.20
2022-08-19T10:48:07.058Z,42.92
2022-08-19T10:51:22.866Z,42.15
2022-08-19T10:53:57.431Z,46.05
2022-08-19T10:56:50.629Z,44.17
2022-08-19T10:59:35.958Z,42.45
2022-08-19T11:02:13.586Z,46.65
2022-08-19T11:04:42.508Z,51.05
2022-08-19T11:07:13.113Z,44.63
2022-08-19T11:09:49.371Z,45.15
2022-08-19T11:12:18.745Z,50.35
2022-08-19T11:28:42.724Z,47.00
2022-08-19T11:34:51.369Z,42.90
2022-08-19T11:37:19.489Z,47.13
2022-08-19T11:39:51.828Z,45.35
2022-08-19T11:45:31.687Z,44.83
2022-08-19T11:47:58.408Z,43.53
2022-08-19T11:50:25.244Z,47.80
2022-08-19T11:52:55.702Z,47.13
2022-08-19T11:55:23.258Z,45.70
2022-08-19T11:57:50.004Z,48.25
2022-08-19T12:00:17.036Z,50.58
2022-08-19T12:02:43.987Z,50.10
2022-08-19T12:05:12.958Z,49.88
2022-08-19T12:07:41.683Z,48.15
2022-08-19T12:10:08.857Z,48.55
2022-08-19T12:12:36.065Z,48.35
2022-08-19T12:18:04.310Z,48.28
2022-08-19T12:29:20.426Z,47.97
2022-08-19T12:32:43.767Z,45.95
2022-08-19T12:41:00.504Z,42.58
2022-08-19T12:43:28.258Z,48.58
2022-08-19T12:45:56.099Z,51.00
2022-08-19T12:48:34.489Z,54.13
2022-08-19T12:51:32.639Z,51.30
2022-08-19T12:54:23.743Z,52.85
2022-08-19T12:57:13.708Z,53.22
2022-08-19T12:59:40.631Z,54.72
2022-08-19T13:02:09.382Z,54.25
2022-08-19T13:04:37.885Z,59.20
2022-08-19T13:10:20.768Z,57.47
2022-08-19T13:13:00.730Z,54.92
2022-08-19T13:15:48.479Z,49.97
2022-08-19T13:18:16.291Z,51.97
2022-08-19T15:26:12.657Z,47.55
2022-08-19T15:28:43.699Z,47.65
2022-08-19T15:31:25.059Z,46.67
2022-08-19T15:33:58.063Z,41.55
2022-08-19T15:36:26.083Z,46.40
2022-08-19T15:38:53.133Z,45.00
2022-08-19T15:41:25.255Z,47.53
2022-08-19T15:44:14.449Z,47.75
2022-08-19T15:46:43.981Z,39.90
2022-08-19T15:49:12.543Z,43.85
2022-08-19T15:51:41.808Z,44.70
2022-08-19T15:54:12.098Z,42.17
2022-08-19T15:56:58.602Z,42.17
2022-08-19T15:59:47.316Z,41.85
2022-08-19T16:02:34.563Z,44.47
2022-08-19T16:05:40.011Z,42.17
2022-08-19T16:08:07.771Z,44.25
2022-08-19T16:10:34.527Z,45.47
2022-08-19T16:13:01.303Z,42.05
2022-08-19T16:15:30.767Z,42.33
2022-08-19T16:17:58.386Z,45.13
2022-08-19T16:20:27.225Z,46.58
2022-08-19T16:22:56.363Z,42.10
2022-08-19T16:25:27.457Z,42.92
2022-08-19T16:28:06.301Z,43.25
2022-08-19T16:30:35.782Z,42.30
2022-08-19T16:33:02.572Z,42.65
2022-08-19T16:35:29.378Z,41.53
2022-08-19T16:37:56.392Z,40.38
2022-08-19T16:40:23.842Z,41.17
2022-08-19T16:42:51.255Z,37.97
2022-08-19T16:45:19.423Z,38.47
2022-08-19T16:47:46.070Z,38.00
2022-08-19T16:50:12.764Z,37.92
2022-08-19T16:52:39.509Z,41.28
2022-08-19T16:55:08.377Z,37.30
2022-08-19T16:57:35.155Z,37.88
2022-08-19T17:00:08.953Z,40.25
2022-08-19T17:02:36.678Z,36.20
2022-08-19T17:05:03.664Z,38.33
2022-08-19T17:07:33.137Z,37.10
2022-08-19T17:10:01.386Z,35.97
2022-08-19T17:12:31.897Z,37.15
2022-08-19T17:15:04.857Z,33.63
2022-08-19T17:20:00.151Z,33.40
2022-08-19T17:22:27.146Z,36.08
2022-08-19T17:24:56.442Z,35.75
2022-08-19T17:27:25.558Z,32.25
2022-08-19T17:29:52.971Z,28.77
2022-08-19T17:32:25.117Z,31.40
2022-08-19T17:37:21.172Z,34.25
2022-08-19T17:39:47.918Z,34.83
2022-08-19T17:42:14.750Z,31.75
2022-08-19T17:44:42.003Z,32.28
2022-08-19T17:47:08.806Z,33.58
2022-08-19T17:49:37.379Z,29.77
2022-08-19T17:52:09.479Z,24.67
2022-08-19T17:54:39.264Z,28.70
2022-08-19T17:57:06.303Z,29.15
2022-08-19T17:59:32.981Z,33.70
2022-08-19T18:02:00.026Z,30.15
2022-08-19T18:04:27.413Z,30.95
2022-08-19T18:06:55.528Z,27.80
2022-08-19T18:09:28.764Z,27.63
2022-08-19T18:12:10.999Z,25.67
2022-08-19T18:14:39.604Z,25.88
2022-08-19T18:17:10.173Z,27.13
2022-08-19T18:19:43.374Z,25.67
2022-08-19T18:22:36.811Z,24.95
2022-08-19T18:25:22.472Z,27.17
2022-08-19T18:27:49.341Z,25.85
2022-08-19T18:30:16.588Z,26.35
2022-08-19T18:32:45.039Z,23.83
2022-08-19T18:35:15.782Z,24.17
2022-08-19T18:37:43.899Z,23.98
2022-08-19T18:40:34.902Z,23.60
2022-08-19T18:43:16.891Z,22.65
2022-08-19T18:46:02.614Z,23.45
2022-08-19T18:48:48.650Z,23.00
2022-08-19T18:51:17.490Z,24.13
2022-08-19T18:53:46.558Z,21.08
2022-08-19T18:56:15.855Z,21.95
2022-08-19T18:58:43.389Z,25.23
2022-08-19T19:01:13.966Z,22.98
2022-08-19T19:03:46.583Z,23.17
2022-08-19T19:06:15.794Z,24.95
2022-08-19T19:08:42.518Z,23.20
2022-08-19T19:11:09.272Z,21.95
2022-08-19T19:13:39.575Z,21.63
2022-08-19T19:16:09.944Z,22.88
2022-08-19T19:18:37.294Z,21.73
2022-08-19T19:21:04.271Z,25.92
2022-08-19T19:23:30.930Z,23.02
2022-08-19T19:25:57.710Z,23.70
2022-08-19T19:28:28.880Z,20.58
2022-08-19T19:30:58.519Z,26.48
2022-08-19T19:33:26.386Z,28.02
2022-08-19T19:35:53.226Z,22.63
2022-08-19T19:38:20.136Z,23.38
2022-08-19T19:40:46.875Z,22.77
2022-08-19T19:43:15.511Z,23.17
2022-08-19T19:45:42.267Z,22.95
2022-08-19T19:48:09.840Z,20.10
2022-08-19T19:50:36.808Z,24.38
2022-08-19T19:53:03.562Z,22.13
2022-08-19T19:55:30.298Z,20.52
2022-08-19T19:57:59.690Z,21.50
2022-08-19T20:00:26.550Z,22.05
2022-08-19T20:02:56.205Z,20.80
2022-08-19T20:05:23.858Z,23.50
2022-08-19T20:08:11.285Z,23.13
2022-08-19T20:10:40.015Z,22.27
2022-08-19T20:13:07.569Z,20.85
2022-08-19T20:15:36.985Z,22.08
2022-08-19T20:18:07.114Z,19.42
2022-08-19T20:20:34.230Z,20.17
2022-08-19T20:23:01.118Z,23.42
2022-08-19T20:25:28.395Z,21.27
2022-08-19T20:27:55.281Z,19.10
2022-08-19T20:30:23.255Z,21.67
2022-08-19T20:32:50.380Z,22.42
2022-08-19T20:35:20.311Z,18.35
2022-08-19T20:37:47.797Z,19.98
2022-08-19T20:40:16.075Z,19.38
2022-08-19T20:42:47.198Z,19.77
2022-08-19T20:45:21.579Z,19.77
2022-08-19T20:48:04.855Z,17.42
2022-08-19T20:50:33.318Z,21.48
2022-08-19T20:53:01.782Z,19.33
2022-08-19T20:55:30.195Z,18.80
2022-08-19T20:57:57.191Z,16.42
2022-08-19T21:00:24.084Z,19.35
2022-08-19T21:02:50.755Z,14.82
2022-08-19T21:05:17.531Z,17.98
2022-08-19T21:07:44.297Z,16.10
2022-08-19T21:10:11.115Z,16.23
2022-08-19T21:12:38.470Z,20.83
2022-08-19T21:15:07.040Z,15.32
2022-08-19T21:17:33.729Z,15.75
2022-08-19T21:20:00.509Z,17.20
2022-08-19T21:22:27.174Z,16.45
2022-08-19T21:24:53.818Z,17.77
2022-08-19T21:27:20.514Z,15.85
2022-08-19T21:29:47.172Z,14.65
2022-08-19T21:32:14.453Z,18.08
2022-08-19T21:34:46.300Z,17.25
2022-08-19T21:37:18.947Z,15.98
2022-08-19T21:39:55.946Z,14.25
2022-08-19T21:42:23.372Z,18.67
2022-08-19T21:44:50.079Z,14.82
2022-08-19T21:47:17.071Z,15.75
2022-08-19T21:49:43.741Z,18.35
2022-08-19T21:52:10.401Z,15.40
2022-08-19T21:54:37.950Z,17.48
2022-08-19T21:57:10.666Z,15.52
2022-08-19T21:59:43.875Z,17.33
2022-08-19T22:02:20.987Z,16.25
2022-08-19T22:04:49.350Z,16.33
2022-08-19T22:07:16.074Z,16.67
2022-08-19T22:09:44.830Z,14.60
2022-08-19T22:12:30.195Z,14.57
2022-08-19T22:14:58.288Z,19.65
2022-08-19T22:17:27.251Z,16.80
2022-08-19T22:19:55.919Z,15.70
2022-08-19T22:22:33.519Z,18.02
2022-08-19T22:25:13.011Z,18.30
2022-08-19T22:27:57.768Z,15.93
2022-08-19T22:30:27.891Z,14.95
2022-08-19T22:33:02.442Z,15.38
2022-08-19T22:35:31.963Z,15.80
2022-08-19T22:37:59.683Z,14.85
2022-08-19T22:40:29.595Z,16.63
2022-08-19T22:43:00.521Z,15.90
2022-08-19T22:45:28.270Z,15.98
2022-08-19T22:47:56.373Z,15.15
2022-08-19T22:50:23.929Z,14.73
2022-08-19T22:52:59.282Z,16.50
2022-08-19T22:55:27.039Z,13.95
2022-08-19T22:57:54.451Z,15.63
2022-08-19T23:00:23.615Z,17.13
2022-08-19T23:02:52.168Z,13.82
2022-08-19T23:05:22.016Z,16.73
2022-08-19T23:07:53.509Z,12.95
2022-08-19T23:10:26.898Z,14.65
2022-08-19T23:12:59.153Z,14.75
2022-08-19T23:15:29.908Z,15.40
2022-08-19T23:17:59.350Z,16.30
2022-08-19T23:20:29.496Z,15.55
2022-08-19T23:22:57.359Z,14.25
2022-08-19T23:25:27.674Z,17.05
2022-08-19T23:28:13.581Z,15.32
2022-08-19T23:30:44.407Z,16.20
2022-08-19T23:33:24.784Z,15.25
2022-08-19T23:35:55.364Z,15.63
2022-08-19T23:38:23.183Z,15.77
2022-08-19T23:40:58.424Z,14.73
2022-08-19T23:43:29.523Z,14.02
2022-08-19T23:45:58.579Z,18.17
2022-08-19T23:48:29.082Z,15.85
2022-08-19T23:50:56.415Z,15.10
2022-08-19T23:53:23.108Z,16.20
2022-08-19T23:55:50.039Z,17.35
2022-08-19T23:58:17.878Z,16.75
